Time,TemperatureF,DewpointF,PressureIn,WindDirection,WindDirectionDegrees,WindSpeedMPH,WindSpeedGustMPH,Humidity,HourlyPrecipIn,Conditions,Clouds,dailyrainin,SoftwareType,DateUTC
2013-05-22 00:08:00,54.0,42.0,31.42,ESE,110,15.0,24.0,64,0.00,,,0.00,weatherlink.com 1.10,2013-05-22 06:08:00,
2013-05-22 00:23:00,51.7,42.0,31.41,East,94,13.0,24.0,69,0.00,,,0.00,weatherlink.com 1.10,2013-05-22 06:23:00,
2013-05-22 00:38:00,52.2,41.0,31.40,East,90,9.0,17.0,65,0.00,,,0.00,weatherlink.com 1.10,2013-05-22 06:38:00,
2013-05-22 00:53:00,53.2,40.0,31.41,East,88,9.0,18.0,62,0.01,,,0.01,weatherlink.com 1.10,2013-05-22 06:53:00,
2013-05-22 01:08:00,54.2,40.0,31.41,ENE,71,9.0,15.0,59,0.01,,,0.01,weatherlink.com 1.10,2013-05-22 07:08:00,
2013-05-22 01:23:00,52.7,41.0,31.40,NW,321,7.0,13.0,65,0.01,,,0.01,weatherlink.com 1.10,2013-05-22 07:23:00,
2013-05-22 01:38:00,51.4,41.0,31.40,West,280,2.0,4.0,68,0.01,,,0.01,weatherlink.com 1.10,2013-05-22 07:38:00,
2013-05-22 01:53:00,51.0,41.0,31.40,North,355,0.0,5.0,69,0.00,,,0.01,weatherlink.com 1.10,2013-05-22 07:53:00,
2013-05-22 02:08:00,51.4,42.0,31.40,West,281,3.0,6.0,69,0.00,,,0.00,weatherlink.com 1.10,2013-05-22 08:08:00,
2013-05-22 02:23:00,52.3,42.0,31.39,ESE,103,12.0,12.0,68,0.00,,,0.00,weatherlink.com 1.10,2013-05-22 08:23:00,
2013-05-22 02:38:00,52.5,42.0,31.38,SE,146,5.0,19.0,68,0.00,,,0.00,weatherlink.com 1.10,2013-05-22 08:38:00,
2013-05-22 02:54:00,52.2,42.0,31.39,East,96,15.0,17.0,68,0.00,,,0.00,weatherlink.com 1.10,2013-05-22 08:54:00,
2013-05-22 03:08:00,52.4,42.0,31.37,NE,56,5.0,17.0,68,0.00,,,0.00,weatherlink.com 1.10,2013-05-22 09:08:00,
2013-05-22 03:23:00,51.9,42.0,31.36,ENE,57,12.0,22.0,69,0.01,,,0.01,weatherlink.com 1.10,2013-05-22 09:23:00,
2013-05-22 03:38:00,52.1,41.0,31.36,East,93,7.0,23.0,67,0.01,,,0.01,weatherlink.com 1.10,2013-05-22 09:38:00,
2013-05-22 03:53:00,51.7,41.0,31.36,ENE,78,16.0,25.0,68,0.01,,,0.01,weatherlink.com 1.10,2013-05-22 09:53:00,
2013-05-22 04:08:00,52.4,41.0,31.36,ESE,107,12.0,16.0,65,0.01,,,0.01,weatherlink.com 1.10,2013-05-22 10:08:00,
2013-05-22 04:23:00,51.9,41.0,31.35,East,90,9.0,13.0,66,0.00,,,0.01,weatherlink.com 1.10,2013-05-22 10:23:00,
2013-05-22 04:38:00,51.6,40.0,31.36,East,92,16.0,16.0,66,0.00,,,0.01,weatherlink.com 1.10,2013-05-22 10:38:00,
2013-05-22 04:53:00,51.9,40.0,31.36,ENE,76,7.0,15.0,64,0.00,,,0.01,weatherlink.com 1.10,2013-05-22 10:53:00,
2013-05-22 05:08:00,51.6,40.0,31.35,ENE,76,7.0,14.0,64,0.00,,,0.01,weatherlink.com 1.10,2013-05-22 11:08:00,
2013-05-22 05:23:00,51.6,40.0,31.35,NE,40,13.0,18.0,64,0.00,,,0.01,weatherlink.com 1.10,2013-05-22 11:23:00,
2013-05-22 05:38:00,51.4,39.0,31.35,NNE,28,12.0,14.0,63,0.00,,,0.01,weatherlink.com 1.10,2013-05-22 11:38:00,
2013-05-22 05:53:00,51.5,39.0,31.35,NE,49,8.0,16.0,63,0.00,,,0.01,weatherlink.com 1.10,2013-05-22 11:53:00,
2013-05-22 06:08:00,51.6,39.0,31.35,ENE,69,7.0,13.0,63,0.00,,,0.01,weatherlink.com 1.10,2013-05-22 12:08:00,
2013-05-22 06:23:00,51.2,39.0,31.35,NE,56,8.0,17.0,63,0.00,,,0.01,weatherlink.com 1.10,2013-05-22 12:23:00,
2013-05-22 06:38:00,51.2,38.0,31.36,ENE,62,10.0,17.0,62,0.00,,,0.01,weatherlink.com 1.10,2013-05-22 12:38:00,
2013-05-22 06:53:00,51.1,38.0,31.36,ENE,57,12.0,14.0,62,0.00,,,0.01,weatherlink.com 1.10,2013-05-22 12:53:00,
2013-05-22 07:08:00,51.0,38.0,31.37,NNW,328,4.0,9.0,62,0.00,,,0.01,weatherlink.com 1.10,2013-05-22 13:08:00,
2013-05-22 07:23:00,50.7,38.0,31.37,North,9,5.0,10.0,62,0.00,,,0.01,weatherlink.com 1.10,2013-05-22 13:23:00,
2013-05-22 07:39:00,50.3,38.0,31.38,NE,48,9.0,16.0,63,0.00,,,0.01,weatherlink.com 1.10,2013-05-22 13:39:00,
2013-05-22 07:54:00,51.4,38.0,31.38,NNE,13,1.0,12.0,61,0.00,,,0.01,weatherlink.com 1.10,2013-05-22 13:54:00,
2013-05-22 08:09:00,50.2,40.0,31.38,WNW,300,13.0,13.0,67,0.00,,,0.01,weatherlink.com 1.10,2013-05-22 14:09:00,
2013-05-22 08:24:00,50.0,41.0,31.39,NW,312,10.0,13.0,70,0.00,,,0.01,weatherlink.com 1.10,2013-05-22 14:24:00,
2013-05-22 08:39:00,49.4,41.0,31.39,NW,305,12.0,17.0,74,0.00,,,0.01,weatherlink.com 1.10,2013-05-22 14:39:00,
2013-05-22 08:54:00,47.7,43.0,31.39,West,271,13.0,19.0,82,0.00,,,0.01,weatherlink.com 1.10,2013-05-22 14:54:00,
2013-05-22 09:09:00,46.1,42.0,31.40,NW,325,7.0,19.0,86,0.00,,,0.01,weatherlink.com 1.10,2013-05-22 15:09:00,
2013-05-22 09:24:00,47.4,43.0,31.40,West,278,17.0,23.0,84,0.00,,,0.01,weatherlink.com 1.10,2013-05-22 15:24:00,
2013-05-22 09:39:00,47.4,43.0,31.41,WNW,287,15.0,22.0,83,0.00,,,0.01,weatherlink.com 1.10,2013-05-22 15:39:00,
2013-05-22 09:54:00,47.1,43.0,31.41,North,350,11.0,25.0,84,0.00,,,0.01,weatherlink.com 1.10,2013-05-22 15:54:00,
2013-05-22 10:09:00,45.9,42.0,31.41,West,280,17.0,29.0,85,0.00,,,0.01,weatherlink.com 1.10,2013-05-22 16:09:00,
2013-05-22 10:24:00,45.9,41.0,31.41,NW,325,21.0,32.0,83,0.00,,,0.01,weatherlink.com 1.10,2013-05-22 16:24:00,
2013-05-22 10:39:00,46.3,41.0,31.41,NW,310,25.0,28.0,81,0.00,,,0.01,weatherlink.com 1.10,2013-05-22 16:39:00,
2013-05-22 10:54:00,46.8,41.0,31.41,WNW,292,22.0,31.0,80,0.00,,,0.01,weatherlink.com 1.10,2013-05-22 16:54:00,
2013-05-22 11:09:00,45.7,40.0,31.41,West,281,27.0,35.0,80,0.00,,,0.01,weatherlink.com 1.10,2013-05-22 17:09:00,
2013-05-22 11:24:00,46.0,40.0,31.42,NW,311,30.0,39.0,78,0.00,,,0.01,weatherlink.com 1.10,2013-05-22 17:24:00,
2013-05-22 11:39:00,43.8,38.0,31.42,WNW,298,35.0,38.0,79,0.00,,,0.01,weatherlink.com 1.10,2013-05-22 17:39:00,
2013-05-22 11:54:00,42.7,37.0,31.44,WNW,301,37.0,44.0,79,0.00,,,0.01,weatherlink.com 1.10,2013-05-22 17:54:00,
2013-05-22 12:09:00,41.5,37.0,31.45,WNW,285,29.0,36.0,84,0.00,,,0.01,weatherlink.com 1.10,2013-05-22 18:09:00,
2013-05-22 12:24:00,42.0,38.0,31.45,NW,313,21.0,34.0,85,0.00,,,0.01,weatherlink.com 1.10,2013-05-22 18:24:00,
2013-05-22 12:39:00,42.9,39.0,31.47,NW,322,29.0,35.0,87,0.00,,,0.01,weatherlink.com 1.10,2013-05-22 18:39:00,
2013-05-22 12:54:00,42.7,39.0,31.47,NNW,330,21.0,30.0,87,0.00,,,0.01,weatherlink.com 1.10,2013-05-22 18:54:00,
2013-05-22 13:09:00,42.5,39.0,31.48,NNW,347,21.0,34.0,88,0.00,,,0.01,weatherlink.com 1.10,2013-05-22 19:09:00,
2013-05-22 13:24:00,41.7,38.0,31.49,NNW,339,26.0,31.0,87,0.00,,,0.01,weatherlink.com 1.10,2013-05-22 19:24:00,
2013-05-22 13:39:00,41.3,37.0,31.48,NW,322,36.0,40.0,86,0.01,,,0.02,weatherlink.com 1.10,2013-05-22 19:39:00,
2013-05-22 13:54:00,40.7,37.0,31.49,NNW,333,31.0,35.0,87,0.01,,,0.02,weatherlink.com 1.10,2013-05-22 19:54:00,
2013-05-22 14:09:00,41.1,37.0,31.49,NW,313,26.0,40.0,85,0.01,,,0.02,weatherlink.com 1.10,2013-05-22 20:09:00,
2013-05-22 14:24:00,40.9,37.0,31.51,NNW,327,26.0,35.0,86,0.01,,,0.02,weatherlink.com 1.10,2013-05-22 20:24:00,
2013-05-22 14:40:00,40.7,38.0,31.53,NNW,333,27.0,33.0,88,0.00,,,0.02,weatherlink.com 1.10,2013-05-22 20:40:00,
2013-05-22 14:55:00,41.6,37.0,31.53,NW,313,21.0,31.0,84,0.00,,,0.02,weatherlink.com 1.10,2013-05-22 20:55:00,
2013-05-22 15:10:00,41.9,38.0,31.55,NNW,338,24.0,32.0,85,0.00,,,0.02,weatherlink.com 1.10,2013-05-22 21:10:00,
2013-05-22 15:25:00,41.5,37.0,31.55,North,355,23.0,32.0,85,0.00,,,0.02,weatherlink.com 1.10,2013-05-22 21:25:00,
2013-05-22 15:40:00,41.4,37.0,31.56,NNW,329,30.0,32.0,85,0.00,,,0.02,weatherlink.com 1.10,2013-05-22 21:40:00,
2013-05-22 15:55:00,40.7,37.0,31.58,NW,325,25.0,32.0,87,0.00,,,0.02,weatherlink.com 1.10,2013-05-22 21:55:00,
2013-05-22 16:10:00,40.5,37.0,31.58,NNW,328,25.0,37.0,88,0.00,,,0.02,weatherlink.com 1.10,2013-05-22 22:10:00,
2013-05-22 16:25:00,39.2,36.0,31.60,NW,314,25.0,37.0,89,0.00,,,0.02,weatherlink.com 1.10,2013-05-22 22:25:00,
2013-05-22 16:40:00,39.2,36.0,31.62,NNW,341,23.0,35.0,89,0.00,,,0.02,weatherlink.com 1.10,2013-05-22 22:40:00,
2013-05-22 16:56:00,38.3,35.0,31.65,WNW,294,19.0,35.0,89,0.00,,,0.02,weatherlink.com 1.10,2013-05-22 22:56:00,
2013-05-22 17:10:00,38.3,35.0,31.67,WNW,294,22.0,31.0,89,0.00,,,0.02,weatherlink.com 1.10,2013-05-22 23:10:00,
2013-05-22 17:25:00,37.8,35.0,31.67,NW,324,23.0,34.0,90,0.01,,,0.03,weatherlink.com 1.10,2013-05-22 23:25:00,
2013-05-22 17:40:00,37.4,35.0,31.70,WNW,301,24.0,35.0,90,0.01,,,0.03,weatherlink.com 1.10,2013-05-22 23:40:00,
2013-05-22 17:55:00,37.0,34.0,31.71,WNW,293,22.0,35.0,89,0.01,,,0.03,weatherlink.com 1.10,2013-05-22 23:55:00,
2013-05-22 18:10:00,-999.0,-99.9,31.73,WNW,300,19.0,38.0,-999,0.01,,,0.03,weatherlink.com 1.10,2013-05-23 00:10:00,
2013-05-22 18:25:00,-999.0,-99.9,31.73,NW,325,19.0,33.0,-999,0.00,,,0.03,weatherlink.com 1.10,2013-05-23 00:25:00,
2013-05-22 18:40:00,35.7,33.0,31.72,NNW,327,25.0,33.0,89,0.00,,,0.03,weatherlink.com 1.10,2013-05-23 00:40:00,
2013-05-22 18:55:00,36.0,33.0,31.73,NNW,346,24.0,39.0,87,0.00,,,0.03,weatherlink.com 1.10,2013-05-23 00:55:00,
2013-05-22 19:10:00,36.2,33.0,31.75,WNW,292,20.0,36.0,88,0.00,,,0.03,weatherlink.com 1.10,2013-05-23 01:10:00,
2013-05-22 19:25:00,36.2,32.0,31.75,NNW,327,26.0,38.0,86,0.00,,,0.03,weatherlink.com 1.10,2013-05-23 01:25:00,
2013-05-22 19:40:00,36.0,32.0,31.76,NW,321,21.0,34.0,85,0.00,,,0.03,weatherlink.com 1.10,2013-05-23 01:40:00,
2013-05-22 19:55:00,36.2,32.0,31.78,NNW,333,17.0,32.0,83,0.00,,,0.03,weatherlink.com 1.10,2013-05-23 01:55:00,
2013-05-22 20:10:00,36.0,32.0,31.80,NNW,338,16.0,27.0,84,0.00,,,0.03,weatherlink.com 1.10,2013-05-23 02:10:00,
2013-05-22 20:25:00,35.3,32.0,31.81,NW,315,16.0,23.0,86,0.00,,,0.03,weatherlink.com 1.10,2013-05-23 02:25:00,
2013-05-22 20:40:00,35.0,32.0,31.82,NW,310,20.0,29.0,87,0.00,,,0.03,weatherlink.com 1.10,2013-05-23 02:40:00,
2013-05-22 20:56:00,35.1,32.0,31.84,NNW,347,13.0,28.0,87,0.00,,,0.03,weatherlink.com 1.10,2013-05-23 02:56:00,
2013-05-22 21:11:00,35.1,32.0,31.85,NNW,329,21.0,28.0,87,0.00,,,0.03,weatherlink.com 1.10,2013-05-23 03:11:00,
2013-05-22 21:26:00,35.2,31.0,31.84,NW,318,7.0,24.0,86,0.00,,,0.03,weatherlink.com 1.10,2013-05-23 03:26:00,
2013-05-22 21:41:00,35.1,31.0,31.84,NW,316,12.0,26.0,86,0.00,,,0.03,weatherlink.com 1.10,2013-05-23 03:41:00,
2013-05-22 21:56:00,35.2,31.0,31.84,NNW,343,17.0,26.0,85,0.00,,,0.03,weatherlink.com 1.10,2013-05-23 03:56:00,
2013-05-22 22:11:00,35.3,31.0,31.86,NNW,327,13.0,23.0,84,0.00,,,0.03,weatherlink.com 1.10,2013-05-23 04:11:00,
2013-05-22 23:14:00,36.1,30.0,31.88,NW,309,6.0,21.0,77,0.01,,,0.04,weatherlink.com 1.10,2013-05-23 05:14:00,
2013-05-22 23:25:00,36.2,29.0,31.88,WNW,298,8.0,19.0,75,0.00,,,0.04,weatherlink.com 1.10,2013-05-23 05:25:00,
2013-05-22 23:40:00,35.8,30.0,31.88,NW,323,9.0,14.0,78,0.00,,,0.04,weatherlink.com 1.10,2013-05-23 05:40:00,
2013-05-22 23:55:00,35.8,29.0,31.88,NW,313,12.0,17.0,77,0.00,,,0.04,weatherlink.com 1.10,2013-05-23 05:55:00,